createdAt,value
2023-03-20T00:00:41.847Z,87.94
2023-03-20T00:01:41.826Z,87.73
2023-03-20T00:02:41.846Z,88.04
2023-03-20T00:03:41.856Z,87.32
2023-03-20T00:04:41.833Z,87.53
2023-03-20T00:05:41.826Z,87.32
2023-03-20T00:06:41.801Z,87.22
2023-03-20T00:07:41.801Z,87.02
2023-03-20T00:08:41.778Z,87.22
2023-03-20T00:09:41.796Z,86.81
2023-03-20T00:10:41.832Z,86.61
2023-03-20T00:11:41.795Z,87.26
2023-03-20T00:12:41.798Z,87.47
2023-03-20T00:13:41.747Z,88.18
2023-03-20T00:14:41.744Z,87.16
2023-03-20T00:15:41.757Z,87.57
2023-03-20T00:16:41.745Z,87.47
2023-03-20T00:17:41.707Z,87.57
2023-03-20T00:18:41.752Z,87.57
2023-03-20T00:19:41.772Z,87.26
2023-03-20T00:20:41.700Z,87.06
2023-03-20T00:21:41.809Z,87.26
2023-03-20T00:22:41.691Z,88.23
2023-03-20T00:23:41.735Z,87.98
2023-03-20T00:24:41.719Z,87.88
2023-03-20T00:25:41.669Z,87.26
2023-03-20T00:26:41.685Z,87.26
2023-03-20T00:27:41.653Z,87.73
2023-03-20T00:28:41.678Z,87.53
2023-03-20T00:29:41.691Z,87.47
2023-03-20T00:30:41.662Z,87.57
2023-03-20T00:31:41.777Z,87.26
2023-03-20T00:32:41.702Z,87.88
2023-03-20T00:33:41.646Z,87.77
2023-03-20T00:34:41.654Z,87.88
2023-03-20T00:35:41.697Z,87.77
2023-03-20T00:36:41.651Z,87.88
2023-03-20T00:37:41.619Z,87.57
2023-03-20T00:38:41.615Z,87.57
2023-03-20T00:39:41.631Z,87.57
2023-03-20T00:40:41.601Z,87.47
2023-03-20T00:41:41.648Z,87.47
2023-03-20T00:42:41.666Z,87.26
2023-03-20T00:43:41.606Z,87.06
2023-03-20T00:44:42.568Z,87.26
2023-03-20T00:45:42.611Z,87.06
2023-03-20T00:46:41.600Z,87.57
2023-03-20T00:47:41.597Z,88.23
2023-03-20T00:48:41.564Z,89.19
2023-03-20T00:49:41.525Z,89.43
2023-03-20T00:50:41.532Z,90.36
2023-03-20T00:51:41.536Z,90.62
2023-03-20T00:52:41.587Z,90.52
2023-03-20T00:53:41.570Z,89.95
2023-03-20T00:54:41.497Z,90.01
2023-03-20T00:55:41.543Z,90.32
2023-03-20T00:56:41.528Z,89.97
2023-03-20T00:57:41.578Z,89.70
2023-03-20T00:58:41.489Z,88.84
2023-03-20T00:59:41.487Z,89.56
2023-03-20T01:00:41.625Z,89.36
2023-03-20T01:01:41.545Z,89.25
2023-03-20T01:02:41.523Z,88.53
2023-03-20T01:03:41.465Z,88.12
2023-03-20T01:04:41.507Z,87.61
2023-03-20T01:05:41.461Z,87.67
2023-03-20T01:06:41.435Z,87.98
2023-03-20T01:07:41.440Z,87.26
2023-03-20T01:08:41.426Z,87.47
2023-03-20T01:09:41.501Z,87.61
2023-03-20T01:10:41.465Z,87.10
2023-03-20T01:11:41.403Z,87.10
2023-03-20T01:12:41.411Z,87.20
2023-03-20T01:13:41.460Z,87.92
2023-03-20T01:14:41.414Z,88.12
2023-03-20T01:15:41.414Z,88.74
2023-03-20T01:16:41.456Z,89.39
2023-03-20T01:17:41.399Z,89.25
2023-03-20T01:18:41.407Z,89.50
2023-03-20T01:19:41.412Z,88.94
2023-03-20T01:20:41.400Z,88.53
2023-03-20T01:21:41.389Z,89.45
2023-03-20T01:22:41.342Z,88.23
2023-03-20T01:23:41.371Z,88.53
2023-03-20T01:24:41.363Z,88.12
2023-03-20T01:25:41.369Z,88.23
2023-03-20T01:26:41.341Z,88.02
2023-03-20T01:27:41.328Z,87.77
2023-03-20T01:28:41.336Z,87.77
2023-03-20T01:29:41.309Z,88.02
2023-03-20T01:30:41.322Z,87.37
2023-03-20T01:31:41.361Z,87.98
2023-03-20T01:32:41.313Z,87.67
2023-03-20T01:33:41.298Z,87.88
2023-03-20T01:34:41.330Z,88.12
2023-03-20T01:35:41.334Z,87.82
2023-03-20T01:36:41.283Z,88.68
2023-03-20T01:37:41.270Z,88.74
2023-03-20T01:38:41.265Z,88.94
2023-03-20T01:39:41.244Z,88.53
2023-03-20T01:40:41.294Z,88.43
2023-03-20T01:41:41.249Z,88.23
2023-03-20T01:42:41.285Z,87.92
2023-03-20T01:43:41.273Z,87.92
2023-03-20T01:44:41.219Z,87.77
2023-03-20T01:45:41.288Z,87.16
2023-03-20T01:46:41.219Z,87.41
2023-03-20T01:47:41.240Z,87.57
2023-03-20T01:48:41.222Z,87.57
2023-03-20T01:49:41.211Z,87.47
2023-03-20T01:50:41.270Z,87.61
2023-03-20T01:51:41.275Z,87.37
2023-03-20T01:52:41.214Z,87.16
2023-03-20T01:53:41.177Z,87.37
2023-03-20T01:54:41.196Z,87.41
2023-03-20T01:55:41.182Z,87.16
2023-03-20T01:56:41.187Z,87.16
2023-03-20T01:57:41.174Z,87.06
2023-03-20T01:58:41.152Z,86.90
2023-03-20T01:59:41.206Z,87.85
2023-03-20T02:00:41.189Z,89.75
2023-03-20T02:01:41.201Z,89.75
2023-03-20T02:02:41.172Z,89.90
2023-03-20T02:03:41.170Z,89.60
2023-03-20T02:04:41.165Z,89.70
2023-03-20T02:05:41.143Z,89.39
2023-03-20T02:06:41.126Z,89.09
2023-03-20T02:07:41.170Z,89.84
2023-03-20T02:08:41.097Z,91.67
2023-03-20T02:09:41.138Z,92.44
2023-03-20T02:10:41.127Z,93.46
2023-03-20T02:11:41.087Z,93.77
2023-03-20T02:12:44.634Z,94.39
2023-03-20T02:13:41.100Z,94.04
2023-03-20T02:14:41.088Z,93.83
2023-03-20T02:15:41.084Z,93.63
2023-03-20T02:16:41.176Z,93.63
2023-03-20T02:17:41.136Z,93.07
2023-03-20T02:18:41.058Z,92.76
2023-03-20T02:19:42.119Z,92.00
2023-03-20T02:20:41.065Z,91.90
2023-03-20T02:21:41.067Z,91.49
2023-03-20T02:22:41.061Z,91.69
2023-03-20T02:23:41.041Z,91.84
2023-03-20T02:24:41.068Z,92.14
2023-03-20T02:25:41.053Z,91.90
2023-03-20T02:26:41.021Z,92.00
2023-03-20T02:27:41.029Z,91.69
2023-03-20T02:28:41.016Z,92.00
2023-03-20T02:29:41.041Z,91.59
2023-03-20T02:30:41.092Z,91.24
2023-03-20T02:31:41.000Z,91.24
2023-03-20T02:32:41.038Z,90.62
2023-03-20T02:33:41.000Z,90.73
2023-03-20T02:34:41.022Z,90.22
2023-03-20T02:35:41.052Z,90.42
2023-03-20T02:36:40.979Z,89.50
2023-03-20T02:37:40.978Z,89.50
2023-03-20T02:38:41.964Z,89.70
2023-03-20T02:39:41.006Z,89.45
2023-03-20T02:40:40.965Z,89.70
2023-03-20T02:41:40.962Z,89.09
2023-03-20T02:42:40.966Z,89.50
2023-03-20T02:43:41.941Z,89.29
2023-03-20T02:44:40.939Z,89.29
2023-03-20T02:45:40.934Z,89.70
2023-03-20T02:46:40.974Z,89.50
2023-03-20T02:47:40.930Z,89.81
2023-03-20T02:48:40.917Z,89.60
2023-03-20T02:49:40.946Z,89.39
2023-03-20T02:50:40.923Z,89.29
2023-03-20T02:51:40.918Z,89.66
2023-03-20T02:52:40.907Z,89.66
2023-03-20T02:53:40.901Z,89.36
2023-03-20T02:54:40.938Z,88.94
2023-03-20T02:55:40.883Z,89.04
2023-03-20T02:56:40.856Z,89.04
2023-03-20T02:57:40.884Z,89.04
2023-03-20T02:58:40.899Z,89.04
2023-03-20T02:59:40.849Z,88.43
2023-03-20T03:00:40.858Z,89.04
2023-03-20T03:01:40.943Z,89.04
2023-03-20T03:02:40.911Z,89.04
2023-03-20T03:03:41.857Z,88.84
2023-03-20T03:04:40.865Z,88.53
2023-03-20T03:05:40.825Z,88.74
2023-03-20T03:06:40.845Z,88.64
2023-03-20T03:07:40.824Z,89.45
2023-03-20T03:08:40.829Z,88.84
2023-03-20T03:09:40.836Z,88.53
2023-03-20T03:10:40.833Z,88.74
2023-03-20T03:11:40.836Z,88.74
2023-03-20T03:12:40.801Z,89.15
2023-03-20T03:13:40.810Z,88.84
2023-03-20T03:14:40.807Z,89.04
2023-03-20T03:15:40.840Z,88.90
2023-03-20T03:16:40.803Z,89.15
2023-03-20T03:17:40.807Z,88.70
2023-03-20T03:18:40.780Z,88.84
2023-03-20T03:19:40.777Z,88.64
2023-03-20T03:20:40.760Z,88.78
2023-03-20T03:21:40.793Z,89.25
2023-03-20T03:22:40.739Z,89.56
2023-03-20T03:23:40.757Z,89.66
2023-03-20T03:24:41.984Z,89.81
2023-03-20T03:25:41.794Z,89.39
2023-03-20T03:26:40.705Z,90.32
2023-03-20T03:27:41.729Z,90.01
2023-03-20T03:28:40.700Z,89.45
2023-03-20T03:29:40.752Z,89.56
2023-03-20T03:30:40.697Z,89.90
2023-03-20T03:31:40.725Z,89.76
2023-03-20T03:32:40.813Z,89.76
2023-03-20T03:33:40.697Z,89.50
2023-03-20T03:34:40.748Z,89.76
2023-03-20T03:35:40.698Z,90.28
2023-03-20T03:36:40.686Z,90.26
2023-03-20T03:37:40.679Z,91.74
2023-03-20T03:38:40.672Z,92.40
2023-03-20T03:39:40.666Z,93.17
2023-03-20T03:40:40.644Z,93.38
2023-03-20T03:41:40.635Z,93.17
2023-03-20T03:42:40.643Z,93.23
2023-03-20T03:43:40.620Z,92.66
2023-03-20T03:44:40.675Z,92.76
2023-03-20T03:45:40.633Z,92.51
2023-03-20T03:46:42.802Z,92.51
2023-03-20T03:47:40.618Z,92.10
2023-03-20T03:48:40.616Z,92.06
2023-03-20T03:49:40.595Z,91.96
2023-03-20T03:50:40.648Z,91.86
2023-03-20T03:51:40.759Z,91.50
2023-03-20T03:52:40.587Z,90.93
2023-03-20T03:53:40.611Z,90.79
2023-03-20T03:54:40.608Z,90.83
2023-03-20T03:55:40.629Z,90.93
2023-03-20T03:56:40.631Z,90.93
2023-03-20T03:57:40.623Z,91.44
2023-03-20T03:58:40.568Z,91.44
2023-03-20T03:59:40.556Z,91.44
2023-03-20T04:00:40.576Z,91.96
2023-03-20T04:01:40.654Z,91.65
2023-03-20T04:02:40.544Z,91.40
2023-03-20T04:03:40.547Z,91.09
2023-03-20T04:04:40.592Z,90.99
2023-03-20T04:05:40.542Z,90.17
2023-03-20T04:06:40.585Z,90.13
2023-03-20T04:07:40.524Z,90.34
2023-03-20T04:08:40.555Z,89.51
2023-03-20T04:09:40.587Z,89.56
2023-03-20T04:10:40.499Z,89.42
2023-03-20T04:11:40.508Z,89.42
2023-03-20T04:12:41.529Z,89.66
2023-03-20T04:13:40.508Z,89.97
2023-03-20T04:14:40.482Z,90.48
2023-03-20T04:15:40.513Z,90.89
2023-03-20T04:16:40.582Z,90.69
2023-03-20T04:17:40.502Z,90.79
2023-03-20T04:18:40.511Z,90.11
2023-03-20T04:19:40.461Z,91.28
2023-03-20T04:20:40.469Z,93.07
2023-03-20T04:21:40.463Z,94.14
2023-03-20T04:22:40.498Z,95.17
2023-03-20T04:23:40.509Z,94.81
2023-03-20T04:24:40.484Z,95.02
2023-03-20T04:25:40.458Z,94.98
2023-03-20T04:26:40.442Z,94.98
2023-03-20T04:27:40.452Z,94.36
2023-03-20T04:28:40.448Z,94.62
2023-03-20T04:29:40.445Z,93.80
2023-03-20T04:30:40.446Z,93.80
2023-03-20T04:31:40.441Z,93.08
2023-03-20T04:32:40.414Z,93.08
2023-03-20T04:33:40.391Z,92.74
2023-03-20T04:34:40.412Z,92.36
2023-03-20T04:35:40.437Z,92.02
2023-03-20T04:36:40.453Z,92.12
2023-03-20T04:37:40.392Z,91.97
2023-03-20T04:38:40.373Z,91.50
2023-03-20T04:39:40.402Z,91.20
2023-03-20T04:40:40.371Z,90.79
2023-03-20T04:41:40.350Z,90.75
2023-03-20T04:42:40.346Z,90.44
2023-03-20T04:43:40.376Z,90.28
2023-03-20T04:44:40.383Z,90.28
2023-03-20T04:45:40.385Z,90.54
2023-03-20T04:46:40.335Z,90.64
2023-03-20T04:47:40.337Z,90.13
2023-03-20T04:48:40.319Z,90.03
2023-03-20T04:49:40.364Z,89.83
2023-03-20T04:50:40.346Z,90.23
2023-03-20T04:51:40.311Z,90.34
2023-03-20T04:52:40.305Z,90.17
2023-03-20T04:53:40.322Z,90.58
2023-03-20T04:54:40.299Z,90.69
2023-03-20T04:55:40.302Z,91.09
2023-03-20T04:56:40.281Z,91.50
2023-03-20T04:57:40.375Z,91.61
2023-03-20T04:58:40.278Z,91.61
2023-03-20T04:59:40.276Z,91.50
2023-03-20T05:00:40.343Z,91.30
2023-03-20T05:01:40.292Z,91.40
2023-03-20T05:02:40.265Z,91.40
2023-03-20T05:03:40.322Z,91.09
2023-03-20T05:04:40.261Z,91.20
2023-03-20T05:05:40.266Z,90.99
2023-03-20T05:06:40.261Z,91.09
2023-03-20T05:07:40.245Z,90.99
2023-03-20T05:08:40.226Z,91.20
2023-03-20T05:09:40.237Z,91.26
2023-03-20T05:10:40.199Z,91.40
2023-03-20T05:11:40.234Z,91.50
2023-03-20T05:12:40.233Z,91.20
2023-03-20T05:13:40.196Z,91.82
2023-03-20T05:14:40.209Z,91.50
2023-03-20T05:15:40.187Z,91.30
2023-03-20T05:16:40.223Z,91.50
2023-03-20T05:17:40.249Z,91.82
2023-03-20T05:18:40.170Z,92.32
2023-03-20T05:19:40.188Z,91.91
2023-03-20T05:20:40.154Z,92.02
2023-03-20T05:21:40.160Z,92.12
2023-03-20T05:22:40.165Z,92.02
2023-03-20T05:23:40.175Z,91.71
2023-03-20T05:24:40.149Z,92.02
2023-03-20T05:25:40.124Z,91.82
2023-03-20T05:26:40.142Z,91.82
2023-03-20T05:27:40.148Z,91.91
2023-03-20T05:28:40.135Z,92.32
2023-03-20T05:29:40.133Z,91.82
2023-03-20T05:30:40.236Z,91.96
2023-03-20T05:31:40.123Z,92.63
2023-03-20T05:32:40.104Z,92.88
2023-03-20T05:33:40.124Z,92.98
2023-03-20T05:34:40.091Z,92.63
2023-03-20T05:35:40.125Z,92.43
2023-03-20T05:36:40.081Z,92.63
2023-03-20T05:37:40.073Z,92.53
2023-03-20T05:38:40.095Z,92.22
2023-03-20T05:39:40.085Z,92.02
2023-03-20T05:40:40.446Z,91.91
2023-03-20T05:41:40.055Z,91.77
2023-03-20T05:42:40.044Z,91.97
2023-03-20T05:43:40.049Z,92.12
2023-03-20T05:44:40.053Z,92.02
2023-03-20T05:45:40.052Z,92.12
2023-03-20T05:46:40.173Z,92.16
2023-03-20T05:47:40.031Z,92.57
2023-03-20T05:48:40.041Z,92.57
2023-03-20T05:49:40.089Z,93.29
2023-03-20T05:50:40.012Z,93.80
2023-03-20T05:51:40.004Z,93.95
2023-03-20T05:52:39.985Z,94.05
2023-03-20T05:53:40.007Z,94.42
2023-03-20T05:54:40.015Z,94.52
2023-03-20T05:55:39.996Z,94.32
2023-03-20T05:56:40.066Z,94.36
2023-03-20T05:57:40.003Z,94.46
2023-03-20T05:58:39.941Z,95.03
2023-03-20T05:59:39.956Z,94.83
2023-03-20T06:00:39.995Z,95.24
2023-03-20T06:01:39.976Z,94.83
2023-03-20T06:02:39.965Z,94.83
2023-03-20T06:03:40.995Z,94.37
2023-03-20T06:04:39.970Z,94.52
2023-03-20T06:05:39.957Z,93.96
2023-03-20T06:06:39.942Z,94.27
2023-03-20T06:07:39.918Z,94.58
2023-03-20T06:08:39.931Z,94.07
2023-03-20T06:09:39.933Z,93.51
2023-03-20T06:10:39.905Z,94.07
2023-03-20T06:11:39.920Z,93.41
2023-03-20T06:12:39.904Z,93.41
2023-03-20T06:13:39.899Z,93.30
2023-03-20T06:14:39.891Z,93.20
2023-03-20T06:15:40.062Z,92.79
2023-03-20T06:16:39.846Z,93.00
2023-03-20T06:17:39.913Z,93.15
2023-03-20T06:18:39.868Z,92.83
2023-03-20T06:19:39.857Z,92.94
2023-03-20T06:20:39.896Z,92.74
2023-03-20T06:21:39.851Z,93.04
2023-03-20T06:22:39.845Z,93.15
2023-03-20T06:23:39.811Z,92.79
2023-03-20T06:24:39.827Z,93.04
2023-03-20T06:25:39.857Z,92.63
2023-03-20T06:26:39.818Z,92.98
2023-03-20T06:27:39.833Z,93.39
2023-03-20T06:28:39.816Z,94.01
2023-03-20T06:29:39.781Z,94.56
2023-03-20T06:30:39.813Z,94.73
2023-03-20T06:31:39.770Z,94.78
2023-03-20T06:32:39.829Z,94.62
2023-03-20T06:33:39.807Z,94.62
2023-03-20T06:34:39.776Z,94.89
2023-03-20T06:35:40.075Z,94.52
2023-03-20T06:36:39.749Z,94.93
2023-03-20T06:37:39.730Z,94.93
2023-03-20T06:38:39.729Z,95.24
2023-03-20T06:39:39.757Z,95.34
2023-03-20T06:40:39.786Z,94.89
2023-03-20T06:41:39.783Z,95.20
2023-03-20T06:42:39.720Z,94.93
2023-03-20T06:43:39.713Z,94.99
2023-03-20T06:44:39.710Z,94.68
2023-03-20T06:45:39.696Z,95.24
2023-03-20T06:46:39.710Z,95.24
2023-03-20T06:47:39.686Z,95.65
2023-03-20T06:48:39.682Z,95.65
2023-03-20T06:49:39.690Z,96.00
2023-03-20T06:50:39.692Z,96.37
2023-03-20T06:51:39.645Z,96.06
2023-03-20T06:52:39.658Z,96.16
2023-03-20T06:53:39.633Z,95.95
2023-03-20T06:54:39.657Z,95.91
2023-03-20T06:55:39.687Z,95.29
2023-03-20T06:56:39.699Z,95.20
2023-03-20T06:57:39.625Z,95.05
2023-03-20T06:58:39.595Z,94.89
2023-03-20T06:59:39.632Z,94.23
2023-03-20T07:00:39.615Z,94.48
2023-03-20T07:01:39.613Z,94.33
2023-03-20T07:02:39.568Z,94.33
2023-03-20T07:03:39.585Z,93.67
2023-03-20T07:04:39.652Z,94.29
2023-03-20T07:05:39.677Z,94.08
2023-03-20T07:06:39.604Z,94.08
2023-03-20T07:07:39.598Z,93.84
2023-03-20T07:08:39.539Z,93.73
2023-03-20T07:09:39.649Z,93.52
2023-03-20T07:10:39.684Z,93.12
2023-03-20T07:11:39.572Z,93.43
2023-03-20T07:12:39.530Z,93.43
2023-03-20T07:13:39.519Z,93.84
2023-03-20T07:14:39.557Z,93.52
2023-03-20T07:15:43.812Z,93.01
2023-03-20T07:16:40.599Z,92.96
2023-03-20T07:17:39.500Z,93.32
2023-03-20T07:18:39.610Z,93.32
2023-03-20T07:19:39.494Z,93.22
2023-03-20T07:20:39.474Z,93.63
2023-03-20T07:21:39.641Z,93.63
2023-03-20T07:22:39.520Z,93.52
2023-03-20T07:23:39.466Z,93.22
2023-03-20T07:24:39.465Z,93.22
2023-03-20T07:25:42.995Z,93.22
2023-03-20T07:26:40.466Z,93.43
2023-03-20T07:27:39.520Z,93.22
2023-03-20T07:28:39.480Z,93.38
2023-03-20T07:29:39.435Z,92.81
2023-03-20T07:30:39.425Z,92.87
2023-03-20T07:31:39.476Z,92.91
2023-03-20T07:32:39.480Z,92.36
2023-03-20T07:33:39.431Z,92.32
2023-03-20T07:34:39.440Z,92.15
2023-03-20T07:35:39.678Z,91.91
2023-03-20T07:36:39.403Z,91.70
2023-03-20T07:37:40.186Z,91.05
2023-03-20T07:38:39.510Z,90.02
2023-03-20T07:39:39.427Z,89.37
2023-03-20T07:40:39.395Z,89.31
2023-03-20T07:41:39.365Z,88.79
2023-03-20T07:42:39.358Z,88.96
2023-03-20T07:43:39.504Z,88.35
2023-03-20T07:44:39.455Z,88.55
2023-03-20T07:45:39.715Z,88.76
2023-03-20T07:46:39.343Z,88.35
2023-03-20T07:47:39.316Z,87.63
2023-03-20T07:48:39.343Z,87.73
2023-03-20T07:49:39.336Z,86.71
2023-03-20T07:50:39.328Z,87.43
2023-03-20T07:51:39.545Z,87.02
2023-03-20T07:52:39.344Z,86.71
2023-03-20T07:53:40.150Z,87.02
2023-03-20T07:54:39.320Z,87.12
2023-03-20T07:55:39.361Z,87.32
2023-03-20T07:56:39.245Z,86.82
2023-03-20T07:57:39.251Z,86.82
2023-03-20T07:58:39.259Z,86.98
2023-03-20T07:59:39.309Z,87.02
2023-03-20T08:00:39.371Z,86.67
2023-03-20T08:01:39.286Z,86.36
2023-03-20T08:02:39.251Z,85.14
2023-03-20T08:03:39.349Z,85.14
2023-03-20T08:04:39.241Z,84.90
2023-03-20T08:05:39.348Z,84.83
2023-03-20T08:06:39.332Z,84.74
2023-03-20T08:07:39.212Z,84.69
2023-03-20T08:08:39.181Z,84.49
2023-03-20T08:09:39.176Z,84.01
2023-03-20T08:10:39.237Z,83.81
2023-03-20T08:11:39.217Z,83.51
2023-03-20T08:12:39.179Z,83.81
2023-03-20T08:13:39.224Z,83.81
2023-03-20T08:14:39.175Z,83.30
2023-03-20T08:15:39.630Z,83.40
2023-03-20T08:16:39.228Z,84.12
2023-03-20T08:17:39.210Z,83.06
2023-03-20T08:18:39.240Z,83.81
2023-03-20T08:19:39.136Z,83.67
2023-03-20T08:20:39.159Z,83.84
2023-03-20T08:21:39.195Z,83.87
2023-03-20T08:22:39.107Z,83.02
2023-03-20T08:23:39.142Z,82.82
2023-03-20T08:24:39.128Z,82.51
2023-03-20T08:25:39.365Z,81.90
2023-03-20T08:26:39.090Z,81.73
2023-03-20T08:27:39.127Z,82.31
2023-03-20T08:28:48.177Z,81.94
2023-03-20T08:29:41.064Z,82.45
2023-03-20T08:30:39.086Z,82.51
2023-03-20T08:31:39.040Z,82.45
2023-03-20T08:32:39.091Z,82.35
2023-03-20T08:33:39.074Z,82.41
2023-03-20T08:34:39.078Z,82.41
2023-03-20T08:35:39.117Z,82.00
2023-03-20T08:36:39.064Z,82.37
2023-03-20T08:37:39.008Z,81.04
2023-03-20T08:38:39.031Z,81.56
2023-03-20T08:39:39.100Z,80.94
2023-03-20T08:40:39.006Z,80.43
2023-03-20T08:41:39.014Z,81.18
2023-03-20T08:42:38.986Z,81.29
2023-03-20T08:43:38.986Z,81.70
2023-03-20T08:44:38.993Z,80.74
2023-03-20T08:45:39.129Z,80.54
2023-03-20T08:46:38.937Z,80.64
2023-03-20T08:47:40.593Z,80.33
2023-03-20T08:48:39.953Z,80.94
2023-03-20T08:49:38.953Z,81.04
2023-03-20T08:50:38.907Z,81.04
2023-03-20T08:51:38.926Z,81.31
2023-03-20T08:52:38.894Z,81.01
2023-03-20T08:53:38.874Z,81.41
2023-03-20T08:54:38.910Z,80.56
2023-03-20T08:55:39.017Z,79.75
2023-03-20T08:56:39.026Z,79.14
2023-03-20T08:57:38.866Z,79.14
2023-03-20T08:58:38.826Z,78.83
2023-03-20T08:59:38.858Z,77.00
2023-03-20T09:00:38.861Z,78.42
2023-03-20T09:01:49.397Z,78.32
2023-03-20T09:02:40.856Z,78.12
2023-03-20T09:03:38.839Z,77.20
2023-03-20T09:04:38.806Z,77.51
2023-03-20T09:05:39.200Z,77.71
2023-03-20T09:06:38.830Z,77.00
2023-03-20T09:07:38.773Z,77.71
2023-03-20T09:08:38.912Z,76.53
2023-03-20T09:09:38.763Z,77.40
2023-03-20T09:10:38.774Z,77.10
2023-03-20T09:11:38.799Z,76.90
2023-03-20T09:12:38.767Z,76.79
2023-03-20T09:13:38.743Z,76.83
2023-03-20T09:14:38.732Z,76.83
2023-03-20T09:15:39.141Z,76.93
2023-03-20T09:16:38.817Z,77.03
2023-03-20T09:17:38.764Z,77.03
2023-03-20T09:18:38.735Z,76.83
2023-03-20T09:19:38.696Z,77.34
2023-03-20T09:20:38.715Z,77.55
2023-03-20T09:21:38.696Z,76.83
2023-03-20T09:22:38.706Z,77.14
2023-03-20T09:23:38.669Z,77.03
2023-03-20T09:24:38.689Z,76.32
2023-03-20T09:25:38.751Z,77.14
2023-03-20T09:26:38.641Z,77.00
2023-03-20T09:27:38.681Z,76.90
2023-03-20T09:28:38.639Z,75.30
2023-03-20T09:29:38.613Z,74.90
2023-03-20T09:30:38.981Z,74.58
2023-03-20T09:31:38.661Z,74.99
2023-03-20T09:32:38.668Z,75.51
2023-03-20T09:33:38.642Z,75.16
2023-03-20T09:34:38.600Z,74.76
2023-03-20T09:35:38.654Z,74.96
2023-03-20T09:36:38.565Z,75.02
2023-03-20T09:37:38.547Z,74.93
2023-03-20T09:38:38.554Z,75.43
2023-03-20T09:39:38.581Z,75.33
2023-03-20T09:40:38.655Z,74.69
2023-03-20T09:41:55.679Z,74.89
2023-03-20T09:42:40.528Z,73.60
2023-03-20T09:43:38.504Z,73.60
2023-03-20T09:44:38.558Z,73.40
2023-03-20T09:45:38.542Z,72.92
2023-03-20T09:46:38.561Z,73.02
2023-03-20T09:47:38.507Z,73.23
2023-03-20T09:48:38.482Z,73.02
2023-03-20T09:49:38.495Z,73.16
2023-03-20T09:50:38.706Z,74.18
2023-03-20T09:51:38.447Z,72.86
2023-03-20T09:52:38.468Z,74.21
2023-03-20T09:53:38.509Z,74.69
2023-03-20T09:54:53.047Z,72.86
2023-03-20T09:55:40.563Z,73.16
2023-03-20T09:56:38.411Z,73.47
2023-03-20T09:57:38.400Z,73.67
2023-03-20T09:58:38.404Z,72.41
2023-03-20T09:59:38.417Z,73.06
2023-03-20T10:00:38.754Z,72.92
2023-03-20T10:01:39.778Z,72.31
2023-03-20T10:02:39.365Z,72.28
2023-03-20T10:03:38.355Z,71.26
2023-03-20T10:04:38.430Z,71.23
2023-03-20T10:05:38.563Z,72.25
2023-03-20T10:06:38.327Z,71.77
2023-03-20T10:07:38.349Z,70.92
2023-03-20T10:08:38.321Z,71.50
2023-03-20T10:09:38.315Z,71.26
2023-03-20T10:10:38.658Z,71.64
2023-03-20T10:11:38.347Z,71.20
2023-03-20T10:12:38.293Z,70.99
2023-03-20T10:13:38.388Z,69.98
2023-03-20T10:14:38.253Z,69.47
2023-03-20T10:15:38.267Z,69.17
2023-03-20T10:16:38.419Z,69.26
2023-03-20T10:17:38.279Z,69.64
2023-03-20T10:18:38.306Z,69.34
2023-03-20T10:19:38.226Z,68.22
2023-03-20T10:20:38.714Z,69.47
2023-03-20T10:21:38.258Z,68.45
2023-03-20T10:22:38.227Z,68.15
2023-03-20T10:23:38.218Z,68.35
2023-03-20T10:24:38.211Z,69.06
2023-03-20T10:25:38.201Z,69.47
2023-03-20T10:26:38.183Z,68.45
2023-03-20T10:27:38.225Z,68.55
2023-03-20T10:28:38.176Z,67.88
2023-03-20T10:29:38.165Z,67.97
2023-03-20T10:30:38.432Z,69.37
2023-03-20T10:31:38.207Z,69.47
2023-03-20T10:32:38.245Z,68.55
2023-03-20T10:33:38.228Z,67.77
2023-03-20T10:34:38.184Z,68.35
2023-03-20T10:35:38.171Z,68.66
2023-03-20T10:36:39.159Z,68.55
2023-03-20T10:37:38.203Z,69.43
2023-03-20T10:38:38.118Z,69.84
2023-03-20T10:39:38.144Z,69.51
2023-03-20T10:40:38.564Z,69.40
2023-03-20T10:41:38.802Z,66.36
2023-03-20T10:42:38.129Z,67.61
2023-03-20T10:43:39.883Z,66.60
2023-03-20T10:44:39.060Z,67.50
2023-03-20T10:45:38.051Z,66.52
2023-03-20T10:46:38.073Z,67.54
2023-03-20T10:47:38.107Z,68.38
2023-03-20T10:48:37.992Z,69.13
2023-03-20T10:49:38.001Z,68.62
2023-03-20T10:50:38.114Z,68.52
2023-03-20T10:51:38.068Z,69.02
2023-03-20T10:52:37.982Z,69.94
2023-03-20T10:53:38.008Z,69.53
2023-03-20T10:54:37.989Z,69.23
2023-03-20T10:55:38.020Z,68.24
2023-03-20T10:56:37.944Z,67.74
2023-03-20T10:57:37.941Z,68.11
2023-03-20T10:58:38.037Z,68.32
2023-03-20T10:59:37.957Z,68.21
2023-03-20T11:00:38.254Z,68.75
2023-03-20T11:01:37.929Z,69.46
2023-03-20T11:02:37.905Z,69.67
2023-03-20T11:03:37.905Z,70.07
2023-03-20T11:04:38.017Z,69.46
2023-03-20T11:05:37.931Z,69.53
2023-03-20T11:06:37.890Z,69.43
2023-03-20T11:07:37.869Z,68.24
2023-03-20T11:08:37.867Z,69.33
2023-03-20T11:09:37.838Z,68.55
2023-03-20T11:10:38.126Z,70.18
2023-03-20T11:11:37.959Z,70.14
2023-03-20T11:12:37.824Z,70.25
2023-03-20T11:13:37.799Z,68.41
2023-03-20T11:14:37.862Z,68.32
2023-03-20T11:15:37.842Z,67.91
2023-03-20T11:16:37.874Z,68.82
2023-03-20T11:17:37.793Z,68.01
2023-03-20T11:18:37.765Z,66.55
2023-03-20T11:19:37.808Z,66.46
2023-03-20T11:20:37.992Z,65.44
2023-03-20T11:21:37.779Z,65.64
2023-03-20T11:22:37.754Z,65.84
2023-03-20T11:23:37.817Z,65.54
2023-03-20T11:24:37.763Z,65.74
2023-03-20T11:25:37.771Z,64.93
2023-03-20T11:26:37.766Z,64.62
2023-03-20T11:27:37.695Z,64.93
2023-03-20T11:28:37.700Z,65.00
2023-03-20T11:29:37.736Z,63.88
2023-03-20T11:30:38.084Z,65.37
2023-03-20T11:31:37.874Z,64.56
2023-03-20T11:32:37.730Z,65.17
2023-03-20T11:33:37.741Z,64.13
2023-03-20T11:34:37.758Z,63.72
2023-03-20T11:35:37.730Z,64.23
2023-03-20T11:36:37.684Z,63.52
2023-03-20T11:37:37.697Z,63.85
2023-03-20T11:38:37.634Z,62.84
2023-03-20T11:39:37.660Z,63.95
2023-03-20T11:40:37.811Z,64.67
2023-03-20T11:41:39.801Z,63.24
2023-03-20T11:42:37.641Z,62.53
2023-03-20T11:43:37.573Z,63.58
2023-03-20T11:44:37.793Z,63.28
2023-03-20T11:45:37.666Z,63.65
2023-03-20T11:46:37.565Z,62.66
2023-03-20T11:47:37.557Z,62.36
2023-03-20T11:48:37.579Z,63.37
2023-03-20T11:49:37.568Z,63.48
2023-03-20T11:50:38.001Z,63.88
2023-03-20T11:51:37.527Z,63.28
2023-03-20T11:52:37.557Z,63.28
2023-03-20T11:53:37.524Z,62.97
2023-03-20T11:54:37.560Z,62.29
2023-03-20T11:55:37.496Z,63.00
2023-03-20T11:56:37.759Z,64.12
2023-03-20T11:57:38.480Z,64.42
2023-03-20T11:58:37.527Z,63.81
2023-03-20T11:59:37.486Z,64.12
2023-03-20T12:00:37.735Z,63.68
2023-03-20T12:01:37.449Z,62.97
2023-03-20T12:02:37.551Z,63.37
2023-03-20T12:03:37.506Z,63.48
2023-03-20T12:04:37.434Z,63.00
2023-03-20T12:05:37.540Z,63.98
2023-03-20T12:06:37.442Z,65.33
2023-03-20T12:07:37.426Z,63.40
2023-03-20T12:08:37.429Z,63.07
2023-03-20T12:09:37.395Z,63.98
2023-03-20T12:10:37.700Z,63.58
2023-03-20T12:11:37.390Z,64.29
2023-03-20T12:12:37.373Z,62.94
2023-03-20T12:13:37.358Z,63.55
2023-03-20T12:14:37.358Z,63.85
2023-03-20T12:15:37.519Z,63.04
2023-03-20T12:16:37.853Z,62.94
2023-03-20T12:17:37.349Z,63.14
2023-03-20T12:18:37.355Z,64.26
2023-03-20T12:19:37.309Z,63.72
2023-03-20T12:20:37.668Z,63.42
2023-03-20T12:21:37.311Z,63.52
2023-03-20T12:22:37.357Z,61.79
2023-03-20T12:23:37.312Z,62.20
2023-03-20T12:24:37.284Z,63.85
2023-03-20T12:25:37.293Z,63.04
2023-03-20T12:26:37.279Z,63.04
2023-03-20T12:27:37.306Z,63.45
2023-03-20T12:28:37.280Z,62.02
2023-03-20T12:29:37.244Z,62.56
2023-03-20T12:30:37.562Z,63.10
2023-03-20T12:31:37.289Z,63.48
2023-03-20T12:32:37.276Z,63.40
2023-03-20T12:33:37.268Z,63.91
2023-03-20T12:34:37.207Z,63.60
2023-03-20T12:35:37.262Z,63.64
2023-03-20T12:36:37.262Z,64.12
2023-03-20T12:37:37.218Z,64.42
2023-03-20T12:38:37.224Z,64.32
2023-03-20T12:39:37.224Z,64.22
2023-03-20T12:40:37.509Z,63.81
2023-03-20T12:41:37.164Z,63.64
2023-03-20T12:42:37.179Z,63.84
2023-03-20T12:43:37.152Z,64.15
2023-03-20T12:44:37.214Z,64.35
2023-03-20T12:45:37.122Z,64.25
2023-03-20T12:46:37.190Z,65.57
2023-03-20T12:47:37.104Z,63.64
2023-03-20T12:48:38.106Z,64.69
2023-03-20T12:49:37.175Z,66.58
2023-03-20T12:50:37.486Z,65.06
2023-03-20T12:51:37.109Z,64.04
2023-03-20T12:52:37.063Z,65.16